sensor_id;sensor_type;location;lat;lon;timestamp;P1;durP1;ratioP1;P2;durP2;ratioP2
12480;SDS011;6305;48.398;11.762;2022-07-29T00:01:32;3.97;;;3.08;;
12480;SDS011;6305;48.398;11.762;2022-07-29T00:03:59;4.55;;;3.50;;
12480;SDS011;6305;48.398;11.762;2022-07-29T00:06:26;3.65;;;3.35;;
12480;SDS011;6305;48.398;11.762;2022-07-29T00:08:54;4.40;;;3.97;;
12480;SDS011;6305;48.398;11.762;2022-07-29T00:11:21;4.10;;;3.70;;
12480;SDS011;6305;48.398;11.762;2022-07-29T00:13:47;4.07;;;3.33;;
12480;SDS011;6305;48.398;11.762;2022-07-29T00:16:14;3.88;;;3.10;;
12480;SDS011;6305;48.398;11.762;2022-07-29T00:18:41;3.35;;;3.00;;
12480;SDS011;6305;48.398;11.762;2022-07-29T00:21:07;4.18;;;3.65;;
12480;SDS011;6305;48.398;11.762;2022-07-29T00:23:34;3.33;;;3.03;;
12480;SDS011;6305;48.398;11.762;2022-07-29T00:26:02;3.40;;;3.10;;
12480;SDS011;6305;48.398;11.762;2022-07-29T00:28:29;4.78;;;3.25;;
12480;SDS011;6305;48.398;11.762;2022-07-29T00:30:56;3.42;;;3.13;;
12480;SDS011;6305;48.398;11.762;2022-07-29T00:33:23;4.30;;;3.13;;
12480;SDS011;6305;48.398;11.762;2022-07-29T00:35:49;3.30;;;3.00;;
12480;SDS011;6305;48.398;11.762;2022-07-29T00:38:16;3.70;;;3.30;;
12480;SDS011;6305;48.398;11.762;2022-07-29T00:40:45;3.40;;;3.10;;
12480;SDS011;6305;48.398;11.762;2022-07-29T00:43:13;4.95;;;3.15;;
12480;SDS011;6305;48.398;11.762;2022-07-29T00:45:40;4.03;;;3.00;;
12480;SDS011;6305;48.398;11.762;2022-07-29T00:48:07;4.10;;;3.35;;
12480;SDS011;6305;48.398;11.762;2022-07-29T00:50:34;3.70;;;3.20;;
12480;SDS011;6305;48.398;11.762;2022-07-29T00:53:02;4.22;;;2.83;;
12480;SDS011;6305;48.398;11.762;2022-07-29T00:55:29;3.95;;;2.80;;
12480;SDS011;6305;48.398;11.762;2022-07-29T00:57:57;3.40;;;3.08;;
12480;SDS011;6305;48.398;11.762;2022-07-29T01:00:26;5.80;;;3.10;;
12480;SDS011;6305;48.398;11.762;2022-07-29T01:02:54;3.20;;;2.90;;
12480;SDS011;6305;48.398;11.762;2022-07-29T01:05:21;4.78;;;3.25;;
12480;SDS011;6305;48.398;11.762;2022-07-29T01:07:53;3.70;;;3.10;;
12480;SDS011;6305;48.398;11.762;2022-07-29T01:10:21;3.22;;;2.92;;
12480;SDS011;6305;48.398;11.762;2022-07-29T01:12:50;4.43;;;2.90;;
12480;SDS011;6305;48.398;11.762;2022-07-29T01:15:18;4.07;;;3.67;;
12480;SDS011;6305;48.398;11.762;2022-07-29T01:17:48;4.85;;;3.13;;
12480;SDS011;6305;48.398;11.762;2022-07-29T01:20:21;3.78;;;3.20;;
12480;SDS011;6305;48.398;11.762;2022-07-29T01:23:08;3.35;;;3.05;;
12480;SDS011;6305;48.398;11.762;2022-07-29T01:26:00;5.00;;;3.50;;
12480;SDS011;6305;48.398;11.762;2022-07-29T01:28:47;3.50;;;3.20;;
12480;SDS011;6305;48.398;11.762;2022-07-29T01:31:20;5.78;;;3.20;;
12480;SDS011;6305;48.398;11.762;2022-07-29T01:33:55;4.45;;;2.97;;
12480;SDS011;6305;48.398;11.762;2022-07-29T01:36:26;3.47;;;2.90;;
12480;SDS011;6305;48.398;11.762;2022-07-29T01:38:58;4.13;;;3.00;;
12480;SDS011;6305;48.398;11.762;2022-07-29T01:41:31;2.88;;;2.50;;
12480;SDS011;6305;48.398;11.762;2022-07-29T01:44:04;2.60;;;2.40;;
12480;SDS011;6305;48.398;11.762;2022-07-29T01:46:38;3.05;;;2.63;;
12480;SDS011;6305;48.398;11.762;2022-07-29T01:49:10;2.88;;;2.50;;
12480;SDS011;6305;48.398;11.762;2022-07-29T01:51:40;4.65;;;2.75;;
12480;SDS011;6305;48.398;11.762;2022-07-29T01:54:12;3.58;;;2.50;;
12480;SDS011;6305;48.398;11.762;2022-07-29T01:56:45;3.78;;;2.85;;
12480;SDS011;6305;48.398;11.762;2022-07-29T01:59:17;3.30;;;2.80;;
12480;SDS011;6305;48.398;11.762;2022-07-29T02:01:44;4.50;;;2.90;;
12480;SDS011;6305;48.398;11.762;2022-07-29T02:04:13;3.25;;;2.70;;
12480;SDS011;6305;48.398;11.762;2022-07-29T02:06:42;3.10;;;2.80;;
12480;SDS011;6305;48.398;11.762;2022-07-29T02:09:12;3.63;;;2.80;;
12480;SDS011;6305;48.398;11.762;2022-07-29T02:11:40;3.05;;;2.65;;
12480;SDS011;6305;48.398;11.762;2022-07-29T02:14:16;3.78;;;2.90;;
12480;SDS011;6305;48.398;11.762;2022-07-29T02:16:44;2.60;;;2.40;;
12480;SDS011;6305;48.398;11.762;2022-07-29T02:19:14;3.10;;;2.80;;
12480;SDS011;6305;48.398;11.762;2022-07-29T02:21:44;3.05;;;2.75;;
12480;SDS011;6305;48.398;11.762;2022-07-29T02:24:12;5.22;;;2.72;;
12480;SDS011;6305;48.398;11.762;2022-07-29T02:26:41;3.20;;;2.35;;
12480;SDS011;6305;48.398;11.762;2022-07-29T02:29:10;3.55;;;2.55;;
12480;SDS011;6305;48.398;11.762;2022-07-29T02:31:41;3.70;;;2.42;;
12480;SDS011;6305;48.398;11.762;2022-07-29T02:34:11;2.80;;;2.17;;
12480;SDS011;6305;48.398;11.762;2022-07-29T02:36:39;2.55;;;2.30;;
12480;SDS011;6305;48.398;11.762;2022-07-29T02:39:06;4.25;;;2.13;;
12480;SDS011;6305;48.398;11.762;2022-07-29T02:41:38;3.35;;;2.40;;
12480;SDS011;6305;48.398;11.762;2022-07-29T02:44:09;4.45;;;2.58;;
12480;SDS011;6305;48.398;11.762;2022-07-29T02:46:37;4.03;;;2.53;;
12480;SDS011;6305;48.398;11.762;2022-07-29T02:49:15;3.20;;;2.58;;
12480;SDS011;6305;48.398;11.762;2022-07-29T02:51:45;2.83;;;2.38;;
12480;SDS011;6305;48.398;11.762;2022-07-29T02:54:17;2.50;;;2.30;;
12480;SDS011;6305;48.398;11.762;2022-07-29T02:56:48;3.30;;;2.40;;
12480;SDS011;6305;48.398;11.762;2022-07-29T02:59:18;4.13;;;2.50;;
12480;SDS011;6305;48.398;11.762;2022-07-29T03:01:52;2.50;;;2.10;;
12480;SDS011;6305;48.398;11.762;2022-07-29T03:04:21;2.80;;;2.50;;
12480;SDS011;6305;48.398;11.762;2022-07-29T03:06:50;2.53;;;2.30;;
12480;SDS011;6305;48.398;11.762;2022-07-29T03:09:18;4.45;;;2.50;;
12480;SDS011;6305;48.398;11.762;2022-07-29T03:11:45;3.47;;;2.30;;
12480;SDS011;6305;48.398;11.762;2022-07-29T03:14:13;2.80;;;2.40;;
12480;SDS011;6305;48.398;11.762;2022-07-29T03:16:41;2.92;;;2.30;;
12480;SDS011;6305;48.398;11.762;2022-07-29T03:19:09;3.40;;;2.67;;
12480;SDS011;6305;48.398;11.762;2022-07-29T03:21:36;2.80;;;2.40;;
12480;SDS011;6305;48.398;11.762;2022-07-29T03:24:03;3.95;;;3.00;;
12480;SDS011;6305;48.398;11.762;2022-07-29T03:26:30;3.65;;;2.53;;
12480;SDS011;6305;48.398;11.762;2022-07-29T03:28:57;3.05;;;2.58;;
12480;SDS011;6305;48.398;11.762;2022-07-29T03:31:24;3.47;;;2.63;;
12480;SDS011;6305;48.398;11.762;2022-07-29T03:33:50;2.72;;;2.45;;
12480;SDS011;6305;48.398;11.762;2022-07-29T03:36:18;3.13;;;2.50;;
12480;SDS011;6305;48.398;11.762;2022-07-29T03:38:45;3.10;;;2.70;;
12480;SDS011;6305;48.398;11.762;2022-07-29T03:41:13;4.07;;;2.50;;
12480;SDS011;6305;48.398;11.762;2022-07-29T03:43:42;3.00;;;2.60;;
12480;SDS011;6305;48.398;11.762;2022-07-29T03:46:10;3.00;;;2.53;;
12480;SDS011;6305;48.398;11.762;2022-07-29T03:48:39;3.00;;;2.70;;
12480;SDS011;6305;48.398;11.762;2022-07-29T03:51:12;4.10;;;2.70;;
12480;SDS011;6305;48.398;11.762;2022-07-29T03:53:40;3.88;;;2.92;;
12480;SDS011;6305;48.398;11.762;2022-07-29T03:56:07;4.18;;;3.15;;
12480;SDS011;6305;48.398;11.762;2022-07-29T03:58:36;3.58;;;2.90;;
12480;SDS011;6305;48.398;11.762;2022-07-29T04:01:04;3.10;;;2.80;;
12480;SDS011;6305;48.398;11.762;2022-07-29T04:03:31;3.78;;;3.28;;
12480;SDS011;6305;48.398;11.762;2022-07-29T04:06:01;3.97;;;2.97;;
12480;SDS011;6305;48.398;11.762;2022-07-29T04:08:31;3.08;;;2.78;;
12480;SDS011;6305;48.398;11.762;2022-07-29T04:10:59;4.80;;;2.85;;
12480;SDS011;6305;48.398;11.762;2022-07-29T04:13:27;4.15;;;3.22;;
12480;SDS011;6305;48.398;11.762;2022-07-29T04:15:54;4.10;;;3.42;;
12480;SDS011;6305;48.398;11.762;2022-07-29T04:18:20;3.72;;;3.20;;
12480;SDS011;6305;48.398;11.762;2022-07-29T04:20:48;3.95;;;3.30;;
12480;SDS011;6305;48.398;11.762;2022-07-29T04:23:15;3.63;;;3.33;;
12480;SDS011;6305;48.398;11.762;2022-07-29T04:25:42;4.88;;;3.40;;
12480;SDS011;6305;48.398;11.762;2022-07-29T04:28:10;3.90;;;3.50;;
12480;SDS011;6305;48.398;11.762;2022-07-29T04:30:37;4.32;;;3.33;;
12480;SDS011;6305;48.398;11.762;2022-07-29T04:33:05;3.50;;;3.20;;
12480;SDS011;6305;48.398;11.762;2022-07-29T04:35:33;5.55;;;3.30;;
12480;SDS011;6305;48.398;11.762;2022-07-29T04:38:01;4.15;;;3.50;;
12480;SDS011;6305;48.398;11.762;2022-07-29T04:40:28;3.95;;;3.10;;
12480;SDS011;6305;48.398;11.762;2022-07-29T04:42:55;5.97;;;3.55;;
12480;SDS011;6305;48.398;11.762;2022-07-29T04:45:23;6.57;;;3.78;;
12480;SDS011;6305;48.398;11.762;2022-07-29T04:47:50;4.40;;;2.75;;
12480;SDS011;6305;48.398;11.762;2022-07-29T04:50:17;3.90;;;3.15;;
12480;SDS011;6305;48.398;11.762;2022-07-29T04:52:43;5.63;;;2.72;;
12480;SDS011;6305;48.398;11.762;2022-07-29T04:55:10;3.92;;;2.88;;
12480;SDS011;6305;48.398;11.762;2022-07-29T04:57:37;3.20;;;2.90;;
12480;SDS011;6305;48.398;11.762;2022-07-29T05:00:04;2.72;;;2.47;;
12480;SDS011;6305;48.398;11.762;2022-07-29T05:02:34;3.33;;;3.03;;
12480;SDS011;6305;48.398;11.762;2022-07-29T05:05:01;3.92;;;2.75;;
12480;SDS011;6305;48.398;11.762;2022-07-29T05:07:28;2.58;;;2.38;;
12480;SDS011;6305;48.398;11.762;2022-07-29T05:09:55;2.90;;;2.70;;
12480;SDS011;6305;48.398;11.762;2022-07-29T05:12:21;4.40;;;2.40;;
12480;SDS011;6305;48.398;11.762;2022-07-29T05:14:48;2.78;;;2.45;;
12480;SDS011;6305;48.398;11.762;2022-07-29T05:17:15;2.90;;;2.60;;
12480;SDS011;6305;48.398;11.762;2022-07-29T05:19:43;3.50;;;2.33;;
12480;SDS011;6305;48.398;11.762;2022-07-29T05:22:10;2.72;;;2.30;;
12480;SDS011;6305;48.398;11.762;2022-07-29T05:24:36;3.65;;;2.60;;
12480;SDS011;6305;48.398;11.762;2022-07-29T05:27:03;2.97;;;2.60;;
12480;SDS011;6305;48.398;11.762;2022-07-29T05:29:30;2.88;;;2.58;;
12480;SDS011;6305;48.398;11.762;2022-07-29T05:31:57;3.60;;;2.40;;
12480;SDS011;6305;48.398;11.762;2022-07-29T05:34:23;3.00;;;2.72;;
12480;SDS011;6305;48.398;11.762;2022-07-29T05:36:52;5.13;;;2.58;;
12480;SDS011;6305;48.398;11.762;2022-07-29T05:39:19;4.15;;;2.72;;
12480;SDS011;6305;48.398;11.762;2022-07-29T05:41:45;4.03;;;2.65;;
12480;SDS011;6305;48.398;11.762;2022-07-29T05:44:12;2.92;;;2.60;;
12480;SDS011;6305;48.398;11.762;2022-07-29T05:46:39;2.45;;;2.20;;
12480;SDS011;6305;48.398;11.762;2022-07-29T05:49:06;2.85;;;2.50;;
12480;SDS011;6305;48.398;11.762;2022-07-29T05:51:32;2.65;;;2.28;;
12480;SDS011;6305;48.398;11.762;2022-07-29T05:54:01;2.20;;;2.00;;
12480;SDS011;6305;48.398;11.762;2022-07-29T05:56:28;4.07;;;2.38;;
12480;SDS011;6305;48.398;11.762;2022-07-29T05:58:55;2.95;;;2.40;;
12480;SDS011;6305;48.398;11.762;2022-07-29T06:01:22;3.10;;;2.20;;
12480;SDS011;6305;48.398;11.762;2022-07-29T06:03:49;4.10;;;2.10;;
12480;SDS011;6305;48.398;11.762;2022-07-29T06:06:15;3.70;;;2.10;;
12480;SDS011;6305;48.398;11.762;2022-07-29T06:08:42;2.65;;;2.10;;
12480;SDS011;6305;48.398;11.762;2022-07-29T06:11:10;2.70;;;1.88;;
12480;SDS011;6305;48.398;11.762;2022-07-29T06:13:37;2.33;;;1.83;;
12480;SDS011;6305;48.398;11.762;2022-07-29T06:16:04;2.88;;;1.90;;
12480;SDS011;6305;48.398;11.762;2022-07-29T06:18:31;2.22;;;2.03;;
12480;SDS011;6305;48.398;11.762;2022-07-29T06:20:57;2.03;;;1.83;;
12480;SDS011;6305;48.398;11.762;2022-07-29T06:23:24;2.13;;;1.80;;
12480;SDS011;6305;48.398;11.762;2022-07-29T06:25:51;2.22;;;1.98;;
12480;SDS011;6305;48.398;11.762;2022-07-29T06:28:19;2.97;;;1.85;;
12480;SDS011;6305;48.398;11.762;2022-07-29T06:30:45;2.03;;;1.73;;
12480;SDS011;6305;48.398;11.762;2022-07-29T06:33:15;2.70;;;1.80;;
12480;SDS011;6305;48.398;11.762;2022-07-29T06:35:43;2.10;;;1.70;;
12480;SDS011;6305;48.398;11.762;2022-07-29T06:38:12;5.38;;;1.83;;
12480;SDS011;6305;48.398;11.762;2022-07-29T06:40:40;2.20;;;2.00;;
12480;SDS011;6305;48.398;11.762;2022-07-29T06:43:27;1.98;;;1.65;;
12480;SDS011;6305;48.398;11.762;2022-07-29T06:45:56;1.85;;;1.65;;
12480;SDS011;6305;48.398;11.762;2022-07-29T06:48:24;1.73;;;1.50;;
12480;SDS011;6305;48.398;11.762;2022-07-29T06:50:51;2.55;;;1.60;;
12480;SDS011;6305;48.398;11.762;2022-07-29T06:53:18;1.90;;;1.63;;
12480;SDS011;6305;48.398;11.762;2022-07-29T06:55:45;1.95;;;1.58;;
12480;SDS011;6305;48.398;11.762;2022-07-29T06:58:12;1.50;;;1.40;;
12480;SDS011;6305;48.398;11.762;2022-07-29T07:00:42;1.65;;;1.55;;
12480;SDS011;6305;48.398;11.762;2022-07-29T07:03:09;2.13;;;1.60;;
12480;SDS011;6305;48.398;11.762;2022-07-29T07:05:35;3.25;;;1.70;;
12480;SDS011;6305;48.398;11.762;2022-07-29T07:08:02;1.77;;;1.50;;
12480;SDS011;6305;48.398;11.762;2022-07-29T07:10:29;1.60;;;1.50;;
12480;SDS011;6305;48.398;11.762;2022-07-29T07:12:56;1.42;;;1.33;;
12480;SDS011;6305;48.398;11.762;2022-07-29T07:15:23;1.40;;;1.27;;
12480;SDS011;6305;48.398;11.762;2022-07-29T07:17:51;2.78;;;1.48;;
12480;SDS011;6305;48.398;11.762;2022-07-29T07:20:18;1.70;;;1.48;;
12480;SDS011;6305;48.398;11.762;2022-07-29T07:22:45;1.50;;;1.40;;
12480;SDS011;6305;48.398;11.762;2022-07-29T07:25:12;1.35;;;1.25;;
12480;SDS011;6305;48.398;11.762;2022-07-29T07:27:39;1.30;;;1.20;;
12480;SDS011;6305;48.398;11.762;2022-07-29T07:30:06;2.85;;;1.40;;
12480;SDS011;6305;48.398;11.762;2022-07-29T07:32:33;1.95;;;1.65;;
12480;SDS011;6305;48.398;11.762;2022-07-29T07:35:02;1.55;;;1.45;;
12480;SDS011;6305;48.398;11.762;2022-07-29T07:37:29;1.80;;;1.40;;
12480;SDS011;6305;48.398;11.762;2022-07-29T07:39:56;1.30;;;1.10;;
12480;SDS011;6305;48.398;11.762;2022-07-29T07:42:23;1.45;;;1.30;;
12480;SDS011;6305;48.398;11.762;2022-07-29T07:44:50;1.30;;;1.20;;
12480;SDS011;6305;48.398;11.762;2022-07-29T07:47:18;3.75;;;1.60;;
12480;SDS011;6305;48.398;11.762;2022-07-29T07:49:45;4.72;;;1.52;;
12480;SDS011;6305;48.398;11.762;2022-07-29T07:52:13;2.75;;;1.33;;
12480;SDS011;6305;48.398;11.762;2022-07-29T07:54:41;1.92;;;1.42;;
12480;SDS011;6305;48.398;11.762;2022-07-29T07:57:08;1.40;;;1.27;;
12480;SDS011;6305;48.398;11.762;2022-07-29T07:59:35;1.85;;;1.42;;
12480;SDS011;6305;48.398;11.762;2022-07-29T08:02:02;1.50;;;0.93;;
12480;SDS011;6305;48.398;11.762;2022-07-29T08:04:29;2.15;;;1.58;;
12480;SDS011;6305;48.398;11.762;2022-07-29T08:06:56;1.95;;;1.30;;
12480;SDS011;6305;48.398;11.762;2022-07-29T08:09:25;2.15;;;1.35;;
12480;SDS011;6305;48.398;11.762;2022-07-29T08:11:52;1.40;;;1.30;;
12480;SDS011;6305;48.398;11.762;2022-07-29T08:14:19;1.30;;;1.20;;
12480;SDS011;6305;48.398;11.762;2022-07-29T08:16:46;1.40;;;1.30;;
12480;SDS011;6305;48.398;11.762;2022-07-29T08:19:13;2.25;;;1.50;;
12480;SDS011;6305;48.398;11.762;2022-07-29T08:21:40;1.80;;;1.27;;
12480;SDS011;6305;48.398;11.762;2022-07-29T08:24:06;1.60;;;1.33;;
12480;SDS011;6305;48.398;11.762;2022-07-29T08:26:52;1.95;;;1.40;;
12480;SDS011;6305;48.398;11.762;2022-07-29T08:29:18;1.90;;;1.42;;
12480;SDS011;6305;48.398;11.762;2022-07-29T08:31:45;1.40;;;1.30;;
12480;SDS011;6305;48.398;11.762;2022-07-29T08:34:12;2.58;;;1.30;;
12480;SDS011;6305;48.398;11.762;2022-07-29T08:36:39;1.25;;;1.10;;
12480;SDS011;6305;48.398;11.762;2022-07-29T08:39:05;1.83;;;1.27;;
12480;SDS011;6305;48.398;11.762;2022-07-29T08:41:32;3.88;;;1.20;;
12480;SDS011;6305;48.398;11.762;2022-07-29T08:44:00;1.77;;;1.23;;
12480;SDS011;6305;48.398;11.762;2022-07-29T08:46:27;2.30;;;1.17;;
12480;SDS011;6305;48.398;11.762;2022-07-29T08:48:53;1.35;;;1.20;;
12480;SDS011;6305;48.398;11.762;2022-07-29T08:51:21;1.65;;;1.40;;
12480;SDS011;6305;48.398;11.762;2022-07-29T08:53:49;1.35;;;1.25;;
12480;SDS011;6305;48.398;11.762;2022-07-29T08:56:16;2.63;;;1.20;;
12480;SDS011;6305;48.398;11.762;2022-07-29T08:58:44;1.42;;;1.20;;
12480;SDS011;6305;48.398;11.762;2022-07-29T09:01:14;2.60;;;1.30;;
12480;SDS011;6305;48.398;11.762;2022-07-29T09:03:43;1.58;;;1.40;;
12480;SDS011;6305;48.398;11.762;2022-07-29T09:06:13;1.30;;;1.20;;
12480;SDS011;6305;48.398;11.762;2022-07-29T09:08:40;1.65;;;1.38;;
12480;SDS011;6305;48.398;11.762;2022-07-29T09:11:07;1.40;;;1.30;;
12480;SDS011;6305;48.398;11.762;2022-07-29T09:13:34;1.48;;;1.27;;
12480;SDS011;6305;48.398;11.762;2022-07-29T09:16:01;1.67;;;1.10;;
12480;SDS011;6305;48.398;11.762;2022-07-29T09:18:35;1.38;;;1.27;;
12480;SDS011;6305;48.398;11.762;2022-07-29T09:21:03;1.40;;;1.30;;
12480;SDS011;6305;48.398;11.762;2022-07-29T09:24:03;1.30;;;1.20;;
12480;SDS011;6305;48.398;11.762;2022-07-29T09:26:31;3.63;;;1.30;;
12480;SDS011;6305;48.398;11.762;2022-07-29T09:28:59;1.83;;;1.30;;
12480;SDS011;6305;48.398;11.762;2022-07-29T09:31:34;1.65;;;1.38;;
12480;SDS011;6305;48.398;11.762;2022-07-29T09:34:04;2.85;;;1.63;;
12480;SDS011;6305;48.398;11.762;2022-07-29T09:36:37;1.83;;;1.52;;
12480;SDS011;6305;48.398;11.762;2022-07-29T09:39:05;1.40;;;1.30;;
12480;SDS011;6305;48.398;11.762;2022-07-29T09:41:43;1.42;;;1.33;;
12480;SDS011;6305;48.398;11.762;2022-07-29T09:44:14;1.52;;;1.42;;
12480;SDS011;6305;48.398;11.762;2022-07-29T09:46:51;2.72;;;1.45;;
12480;SDS011;6305;48.398;11.762;2022-07-29T09:49:32;1.65;;;1.55;;
12480;SDS011;6305;48.398;11.762;2022-07-29T09:52:00;2.20;;;1.50;;
12480;SDS011;6305;48.398;11.762;2022-07-29T09:54:29;2.30;;;1.50;;
12480;SDS011;6305;48.398;11.762;2022-07-29T09:57:01;1.60;;;1.40;;
12480;SDS011;6305;48.398;11.762;2022-07-29T09:59:28;1.60;;;1.50;;
12480;SDS011;6305;48.398;11.762;2022-07-29T10:01:55;1.80;;;1.65;;
12480;SDS011;6305;48.398;11.762;2022-07-29T10:04:23;1.60;;;1.50;;
12480;SDS011;6305;48.398;11.762;2022-07-29T10:06:58;1.88;;;1.50;;
12480;SDS011;6305;48.398;11.762;2022-07-29T10:09:26;1.85;;;1.60;;
12480;SDS011;6305;48.398;11.762;2022-07-29T10:12:06;1.77;;;1.40;;
12480;SDS011;6305;48.398;11.762;2022-07-29T10:14:35;1.50;;;1.40;;
12480;SDS011;6305;48.398;11.762;2022-07-29T10:17:04;1.58;;;1.48;;
12480;SDS011;6305;48.398;11.762;2022-07-29T10:19:32;1.60;;;1.48;;
12480;SDS011;6305;48.398;11.762;2022-07-29T10:22:01;1.67;;;1.58;;
12480;SDS011;6305;48.398;11.762;2022-07-29T10:24:30;1.63;;;1.52;;
12480;SDS011;6305;48.398;11.762;2022-07-29T10:26:58;2.10;;;1.52;;
12480;SDS011;6305;48.398;11.762;2022-07-29T10:29:26;1.77;;;1.50;;
12480;SDS011;6305;48.398;11.762;2022-07-29T10:31:59;2.00;;;1.65;;
12480;SDS011;6305;48.398;11.762;2022-07-29T10:34:45;2.53;;;1.75;;
12480;SDS011;6305;48.398;11.762;2022-07-29T10:37:27;1.60;;;1.50;;
12480;SDS011;6305;48.398;11.762;2022-07-29T10:40:06;1.58;;;1.48;;
12480;SDS011;6305;48.398;11.762;2022-07-29T10:42:59;2.83;;;1.83;;
12480;SDS011;6305;48.398;11.762;2022-07-29T10:45:33;2.42;;;2.00;;
12480;SDS011;6305;48.398;11.762;2022-07-29T10:48:04;3.95;;;1.92;;
12480;SDS011;6305;48.398;11.762;2022-07-29T10:53:21;3.08;;;1.98;;
12480;SDS011;6305;48.398;11.762;2022-07-29T10:55:49;3.75;;;2.30;;
12480;SDS011;6305;48.398;11.762;2022-07-29T10:58:17;2.22;;;1.90;;
12480;SDS011;6305;48.398;11.762;2022-07-29T11:00:46;2.47;;;2.28;;
12480;SDS011;6305;48.398;11.762;2022-07-29T11:06:09;2.05;;;1.90;;
12480;SDS011;6305;48.398;11.762;2022-07-29T11:08:37;2.72;;;2.10;;
12480;SDS011;6305;48.398;11.762;2022-07-29T11:14:03;3.08;;;1.80;;
12480;SDS011;6305;48.398;11.762;2022-07-29T11:19:25;2.60;;;2.00;;
12480;SDS011;6305;48.398;11.762;2022-07-29T11:21:51;2.40;;;2.20;;
12480;SDS011;6305;48.398;11.762;2022-07-29T11:24:20;3.08;;;2.63;;
12480;SDS011;6305;48.398;11.762;2022-07-29T11:27:08;2.33;;;2.00;;
12480;SDS011;6305;48.398;11.762;2022-07-29T11:29:38;3.13;;;2.30;;
12480;SDS011;6305;48.398;11.762;2022-07-29T11:32:10;2.30;;;2.10;;
12480;SDS011;6305;48.398;11.762;2022-07-29T11:34:38;2.40;;;2.20;;
12480;SDS011;6305;48.398;11.762;2022-07-29T11:37:15;2.13;;;1.90;;
12480;SDS011;6305;48.398;11.762;2022-07-29T11:39:45;2.38;;;2.17;;
12480;SDS011;6305;48.398;11.762;2022-07-29T11:42:36;2.75;;;2.17;;
12480;SDS011;6305;48.398;11.762;2022-07-29T11:45:05;2.30;;;2.10;;
12480;SDS011;6305;48.398;11.762;2022-07-29T11:47:34;2.67;;;2.20;;
12480;SDS011;6305;48.398;11.762;2022-07-29T11:50:03;3.63;;;2.58;;
12480;SDS011;6305;48.398;11.762;2022-07-29T11:52:31;2.75;;;2.45;;
12480;SDS011;6305;48.398;11.762;2022-07-29T11:55:03;2.47;;;2.28;;
12480;SDS011;6305;48.398;11.762;2022-07-29T11:57:31;2.90;;;2.50;;
12480;SDS011;6305;48.398;11.762;2022-07-29T12:00:00;3.47;;;2.30;;
12480;SDS011;6305;48.398;11.762;2022-07-29T12:02:37;2.30;;;2.10;;
12480;SDS011;6305;48.398;11.762;2022-07-29T12:05:07;2.97;;;2.50;;
12480;SDS011;6305;48.398;11.762;2022-07-29T12:07:34;2.50;;;2.30;;
12480;SDS011;6305;48.398;11.762;2022-07-29T12:10:03;2.30;;;2.05;;
12480;SDS011;6305;48.398;11.762;2022-07-29T12:12:31;3.20;;;2.28;;
12480;SDS011;6305;48.398;11.762;2022-07-29T12:14:58;2.72;;;2.33;;
12480;SDS011;6305;48.398;11.762;2022-07-29T12:17:37;2.45;;;2.25;;
12480;SDS011;6305;48.398;11.762;2022-07-29T12:20:04;2.40;;;2.20;;
12480;SDS011;6305;48.398;11.762;2022-07-29T12:22:32;4.30;;;2.85;;
12480;SDS011;6305;48.398;11.762;2022-07-29T12:25:04;2.35;;;2.10;;
12480;SDS011;6305;48.398;11.762;2022-07-29T12:27:32;2.85;;;2.00;;
12480;SDS011;6305;48.398;11.762;2022-07-29T12:29:59;4.50;;;2.17;;
12480;SDS011;6305;48.398;11.762;2022-07-29T12:32:30;2.55;;;2.00;;
12480;SDS011;6305;48.398;11.762;2022-07-29T12:34:59;2.35;;;1.80;;
12480;SDS011;6305;48.398;11.762;2022-07-29T12:37:29;2.25;;;2.05;;
12480;SDS011;6305;48.398;11.762;2022-07-29T12:39:56;3.55;;;2.17;;
12480;SDS011;6305;48.398;11.762;2022-07-29T12:42:24;2.40;;;2.20;;
12480;SDS011;6305;48.398;11.762;2022-07-29T12:44:51;2.33;;;2.05;;
12480;SDS011;6305;48.398;11.762;2022-07-29T12:47:18;2.72;;;2.40;;
12480;SDS011;6305;48.398;11.762;2022-07-29T12:49:45;2.67;;;2.20;;
12480;SDS011;6305;48.398;11.762;2022-07-29T12:52:25;3.60;;;2.30;;
12480;SDS011;6305;48.398;11.762;2022-07-29T12:54:53;2.90;;;2.50;;
12480;SDS011;6305;48.398;11.762;2022-07-29T12:57:20;2.55;;;2.10;;
12480;SDS011;6305;48.398;11.762;2022-07-29T13:00:00;4.47;;;2.10;;
12480;SDS011;6305;48.398;11.762;2022-07-29T13:02:29;2.40;;;1.92;;
12480;SDS011;6305;48.398;11.762;2022-07-29T13:04:56;2.78;;;1.67;;
12480;SDS011;6305;48.398;11.762;2022-07-29T13:07:25;2.85;;;1.92;;
12480;SDS011;6305;48.398;11.762;2022-07-29T13:09:54;4.40;;;2.13;;
12480;SDS011;6305;48.398;11.762;2022-07-29T13:12:37;2.83;;;2.05;;
12480;SDS011;6305;48.398;11.762;2022-07-29T13:15:14;3.55;;;1.80;;
12480;SDS011;6305;48.398;11.762;2022-07-29T13:17:41;2.33;;;1.90;;
12480;SDS011;6305;48.398;11.762;2022-07-29T13:20:09;2.22;;;1.90;;
12480;SDS011;6305;48.398;11.762;2022-07-29T13:22:39;4.53;;;2.05;;
12480;SDS011;6305;48.398;11.762;2022-07-29T13:25:07;2.35;;;2.15;;
12480;SDS011;6305;48.398;11.762;2022-07-29T13:27:35;2.67;;;2.00;;
12480;SDS011;6305;48.398;11.762;2022-07-29T13:30:04;1.98;;;1.80;;
12480;SDS011;6305;48.398;11.762;2022-07-29T13:32:34;4.90;;;3.58;;
12480;SDS011;6305;48.398;11.762;2022-07-29T13:35:02;2.60;;;2.17;;
12480;SDS011;6305;48.398;11.762;2022-07-29T13:37:30;2.00;;;1.80;;
12480;SDS011;6305;48.398;11.762;2022-07-29T13:39:59;2.30;;;2.10;;
12480;SDS011;6305;48.398;11.762;2022-07-29T13:42:28;2.22;;;1.85;;
12480;SDS011;6305;48.398;11.762;2022-07-29T13:44:54;5.05;;;2.20;;
12480;SDS011;6305;48.398;11.762;2022-07-29T13:47:21;2.10;;;1.90;;
12480;SDS011;6305;48.398;11.762;2022-07-29T13:49:49;3.53;;;2.20;;
12480;SDS011;6305;48.398;11.762;2022-07-29T13:52:16;4.05;;;2.20;;
12480;SDS011;6305;48.398;11.762;2022-07-29T13:54:43;5.03;;;2.30;;
12480;SDS011;6305;48.398;11.762;2022-07-29T13:57:10;5.38;;;2.30;;
12480;SDS011;6305;48.398;11.762;2022-07-29T13:59:38;4.57;;;2.05;;
12480;SDS011;6305;48.398;11.762;2022-07-29T14:02:05;3.20;;;2.28;;
12480;SDS011;6305;48.398;11.762;2022-07-29T14:04:32;4.15;;;2.58;;
12480;SDS011;6305;48.398;11.762;2022-07-29T14:07:00;5.03;;;2.45;;
12480;SDS011;6305;48.398;11.762;2022-07-29T14:09:27;3.80;;;2.40;;
12480;SDS011;6305;48.398;11.762;2022-07-29T14:11:54;3.10;;;2.20;;
12480;SDS011;6305;48.398;11.762;2022-07-29T14:14:21;2.40;;;2.20;;
12480;SDS011;6305;48.398;11.762;2022-07-29T14:16:48;2.35;;;2.10;;
12480;SDS011;6305;48.398;11.762;2022-07-29T14:19:15;2.58;;;2.38;;
12480;SDS011;6305;48.398;11.762;2022-07-29T14:21:41;5.10;;;2.15;;
12480;SDS011;6305;48.398;11.762;2022-07-29T14:24:10;3.53;;;2.03;;
12480;SDS011;6305;48.398;11.762;2022-07-29T14:26:36;3.17;;;2.40;;
12480;SDS011;6305;48.398;11.762;2022-07-29T14:29:03;2.75;;;2.33;;
12480;SDS011;6305;48.398;11.762;2022-07-29T14:31:30;4.13;;;2.80;;
12480;SDS011;6305;48.398;11.762;2022-07-29T14:33:56;2.33;;;2.13;;
12480;SDS011;6305;48.398;11.762;2022-07-29T14:36:23;2.30;;;2.10;;
12480;SDS011;6305;48.398;11.762;2022-07-29T14:38:50;3.58;;;2.38;;
12480;SDS011;6305;48.398;11.762;2022-07-29T14:41:18;4.13;;;2.13;;
12480;SDS011;6305;48.398;11.762;2022-07-29T14:43:46;3.17;;;2.25;;
12480;SDS011;6305;48.398;11.762;2022-07-29T14:46:13;3.22;;;2.38;;
12480;SDS011;6305;48.398;11.762;2022-07-29T14:48:39;2.95;;;2.00;;
12480;SDS011;6305;48.398;11.762;2022-07-29T14:51:06;2.63;;;2.38;;
12480;SDS011;6305;48.398;11.762;2022-07-29T14:53:33;3.55;;;2.72;;
12480;SDS011;6305;48.398;11.762;2022-07-29T14:55:59;3.45;;;2.40;;
12480;SDS011;6305;48.398;11.762;2022-07-29T14:58:28;4.25;;;2.30;;
12480;SDS011;6305;48.398;11.762;2022-07-29T15:00:54;2.92;;;2.42;;
12480;SDS011;6305;48.398;11.762;2022-07-29T15:03:21;3.65;;;2.40;;
12480;SDS011;6305;48.398;11.762;2022-07-29T15:05:48;3.20;;;2.60;;
12480;SDS011;6305;48.398;11.762;2022-07-29T15:08:14;2.53;;;2.33;;
12480;SDS011;6305;48.398;11.762;2022-07-29T15:10:41;2.35;;;2.15;;